• Join FlightAware (Why Join?)
  • Login
  • US Flag 
04:29AM EDT


 

Airport Tracker/Info


-or-


 

Live Flight TrackerFlight Track Log ✈ EGF4174 ✈ 25-Apr-2013 ✈ KSYR - KORD

Flight Track Log - Related Links

Times and Time Zones

All times are in EDT time to prevent confusion due to time zone crossing. See the EGF4174 flight status page for this flight to view local times or setup timezone preferences in your user account.

Time Position Orientation Groundspeed Altitude Reporting Facility
EDT Latitude Longitude Course Direction KTS MPH feet Rate Location/Type
05:06PM 43.1072 -76.1433 286° West 164 189 1,300  Level Boston Center
05:07PM 43.1072 -76.2031 270° West 179 206 3,100 2,160 Climbing Boston Center
05:08PM 43.1833 -76.4229 270° West  Level FlightAware Approximate
05:08PM 43.1047 -76.2853 268° West 225 259 5,300  Level Boston Center
05:09PM 43.2040 -76.5280 281° West  Level FlightAware Approximate
05:10PM 43.2222 -76.6425 286° West  Level FlightAware Approximate
05:10PM 43.1042 -76.4739 270° West 253 291 10,000  Level Cleveland Center
05:11PM 43.2464 -76.7551 286° West  Level FlightAware Approximate
05:11PM 43.1100 -76.5758 275° West 258 297 11,700  Level Cleveland Center
05:12PM 43.1117 -76.6897 271° West 281 323 12,900 1,200 Climbing Cleveland Center
05:13PM 43.1136 -76.8119 271° West 306 352 14,200 1,320 Climbing Cleveland Center
05:14PM 43.1175 -76.9367 272° West 325 374 15,600 1,560 Climbing Cleveland Center
05:15PM 43.1194 -77.0617 271° West 330 380 17,400 1,740 Climbing Cleveland Center
05:16PM 43.1231 -77.1839 272° West 330 380 19,100 1,680 Climbing Cleveland Center
05:17PM 43.1264 -77.3006 272° West 325 374 20,800 1,740 Climbing Cleveland Center
05:18PM 43.1278 -77.4200 271° West 325 374 22,600 1,080 Climbing Cleveland Center
05:19PM 43.1289 -77.5422 271° West 325 374 23,000 180 Climbing Cleveland Center
05:20PM 43.1322 -77.6728 272° West 332 382 23,000 360 Level Cleveland Center
05:21PM 43.1361 -77.8264 272° West 359 413 23,800 960 Climbing Cleveland Center
05:22PM 43.1392 -77.9628 272° West 364 419 25,000 1,140 Climbing Cleveland Center
05:23PM 43.1400 -78.0936 271° West 359 413 26,100 1,200 Climbing Cleveland Center
05:24PM 43.1406 -78.2272 270° West 359 413 27,400 1,320 Climbing Cleveland Center
05:25PM 43.1431 -78.3525 272° West 347 399 28,800 1,380 Climbing Cleveland Center
05:26PM 43.1411 -78.4719 269° West 335 386 30,200 1,440 Climbing Cleveland Center
05:27PM 43.1392 -78.5917 269° West 324 373 31,700 1,380 Climbing Cleveland Center
05:28PM 43.1328 -78.7086 266° West 319 367 33,000 1,200 Climbing Cleveland Center
05:29PM 43.1303 -78.8222 268° West 313 360 34,100 1,020 Climbing Cleveland Center
05:30PM 43.1167 -78.9000 257° West 300 345 34,900 840 Climbing Toronto Center
05:31PM 43.1167 -79.0167 270° West 300 345 35,700 540 Climbing Toronto Center
05:32PM 43.1167 -79.1333 270° West 310 357 36,000 120 Climbing Toronto Center
05:33PM 43.1000 -79.2667 260° West 330 380 36,000  Level Toronto Center
05:34PM 43.1000 -79.4000 270° West 350 403 36,000  Level Toronto Center
05:35PM 43.1000 -79.5500 270° West 370 426 36,000  Level Toronto Center
05:36PM 43.1000 -79.6833 270° West 380 437 36,000  Level Toronto Center
05:37PM 43.0833 -79.8333 261° West 390 449 36,000  Level Toronto Center
05:38PM 43.0833 -79.9833 270° West 390 449 36,000  Level Toronto Center
05:39PM 43.0833 -80.1333 270° West 390 449 36,000  Level Toronto Center
05:40PM 43.0667 -80.2667 260° West 390 449 36,000  Level Toronto Center
05:41PM 43.0667 -80.4333 270° West 390 449 36,000  Level Toronto Center
05:42PM 43.0500 -80.5833 261° West 390 449 36,000  Level Toronto Center
05:43PM 43.0500 -80.7333 270° West 390 449 36,000  Level Toronto Center
05:44PM 43.0333 -80.8667 260° West 390 449 36,000  Level Toronto Center
05:45PM 43.0333 -81.0167 270° West 390 449 36,000  Level Toronto Center
05:46PM 43.0167 -81.1667 261° West 380 437 36,000  Level Toronto Center
05:47PM 43.0167 -81.3167 270° West 380 437 36,000  Level Toronto Center
05:48PM 43.0167 -81.4500 270° West 380 437 36,000  Level Toronto Center
05:49PM 43.0167 -81.6167 270° West 380 437 36,000  Level Toronto Center
05:50PM 43.0167 -81.7500 270° West 390 449 36,000  Level Toronto Center
05:51PM 43.0167 -81.8833 270° West 390 449 36,000  Level Toronto Center
05:52PM 43.0000 -82.0500 262° West 390 449 36,000  Level Toronto Center
05:53PM 43.0000 -82.1833 270° West 390 449 36,000  Level Toronto Center
05:54PM 43.0000 -82.3500 270° West 390 449 36,000  Level Toronto Center
05:55PM 43.0000 -82.4833 270° West 390 449 36,000  Level Toronto Center
05:56PM 43.0022 -82.6583 271° West 393 452 36,000  Level Cleveland Center
05:57PM 42.9994 -82.8031 269° West 393 452 36,000 -360 Level Cleveland Center
05:58PM 42.9944 -82.9478 267° West 393 452 35,300 -900 Descending Cleveland Center
05:59PM 42.9892 -83.0981 267° West 387 445 34,300 -540 Descending Cleveland Center
06:01PM 42.9783 -83.3956 267° West 387 445 33,800 -600 Descending Cleveland Center
06:02PM 42.9742 -83.5600 268° West 399 459 32,500 -900 Descending Cleveland Center
06:03PM 42.9681 -83.7072 267° West 399 459 32,000 -300 Descending Cleveland Center
06:04PM 42.9578 -83.8514 264° West 399 459 32,000  Level Cleveland Center
06:05PM 42.9414 -83.9925 261° West 394 453 32,000  Level Cleveland Center
06:06PM 42.9286 -84.1392 263° West 394 453 32,000  Level Cleveland Center
06:07PM 42.9133 -84.2858 262° West 394 453 32,000  Level Cleveland Center
06:09PM 42.8886 -84.5356 262° West 396 456 32,000  Level Chicago Center
06:10PM 42.8742 -84.6844 263° West 398 458 32,000  Level Chicago Center
06:11PM 42.8583 -84.8339 262° West 399 459 32,000  Level Chicago Center
06:12PM 42.8433 -84.9822 262° West 395 455 32,000 -180 Level Chicago Center
06:13PM 42.8275 -85.1292 262° West 393 452 31,700 -900 Descending Chicago Center
06:14PM 42.8114 -85.2761 262° West 392 451 30,200 -1,620 Descending Chicago Center
06:15PM 42.7956 -85.4219 262° West 391 450 28,400 -1,920 Descending Chicago Center
06:16PM 42.7689 -85.6028 259° West 405 466 26,200 -2,040 Descending Chicago Center
06:17PM 42.7414 -85.7553 256° West 411 473 24,200 -1,980 Descending Chicago Center
06:18PM 42.7142 -85.9017 256° West 400 460 22,200 -1,680 Descending Chicago Center
06:19PM 42.6894 -86.0419 257° West 383 441 20,800 -1,080 Descending Chicago Center
06:20PM 42.6639 -86.1761 256° West 369 425 20,000 -720 Descending Chicago Center
06:21PM 42.6400 -86.3097 256° West 365 420 19,400 -1,140 Descending Chicago Center
06:22PM 42.6136 -86.4394 255° West 359 413 17,700 -1,800 Descending Chicago Center
06:23PM 42.5847 -86.5989 256° West 361 415 15,800 -1,800 Descending Chicago Center
06:24PM 42.5617 -86.7256 256° West 349 402 14,000 -1,800 Descending Chicago Center
06:25PM 42.5306 -86.8464 251° West 341 392 12,200 -1,740 Descending Chicago Center
06:26PM 42.4981 -86.9639 249° West 335 386 10,500 -1,140 Descending Chicago Center
06:27PM 42.4681 -87.0669 248° West 294 338 9,900 -780 Descending Chicago Center
06:28PM 42.4444 -87.1547 250° West 254 292 8,900 -1,080 Descending Chicago Center
06:29PM 42.3864 -87.2333 225° Southwest 264 304 7,700 -1,080 Descending Chicago Center
06:30PM 42.3247 -87.2869 213° Southwest 264 304 6,700 -840 Descending Chicago Center
06:31PM 42.2608 -87.3467 215° Southwest 259 298 6,000 -360 Descending Chicago Center
06:32PM 42.2022 -87.4014 215° Southwest 257 296 6,000 -60 Level Chicago Center
06:33PM 42.1431 -87.4564 215° Southwest 259 298 5,900 -540 Descending Chicago Center
06:34PM 42.0931 -87.5133 220° Southwest 242 278 4,900 -900 Descending Chicago Center
06:36PM 42.0489 -87.5775 227° Southwest 239 275 4,100 -480 Descending Chicago Center
06:37PM 42.0097 -87.6486 233° Southwest 215 247 4,000 -240 Descending Chicago Center
06:38PM 42.0000 -87.7333 261° West 208 239 3,600 -360 Descending Chicago TRACON